createdAt,value
2022-09-17T00:01:31.483Z,14.40
2022-09-17T00:04:04.255Z,14.40
2022-09-17T00:06:34.439Z,14.40
2022-09-17T00:09:05.246Z,14.40
2022-09-17T00:11:36.271Z,14.40
2022-09-17T00:14:06.106Z,14.40
2022-09-17T00:16:37.241Z,14.40
2022-09-17T00:19:07.195Z,14.30
2022-09-17T00:21:35.392Z,14.40
2022-09-17T00:24:07.308Z,14.40
2022-09-17T00:26:36.082Z,14.40
2022-09-17T00:29:04.817Z,14.40
2022-09-17T00:31:34.005Z,14.40
2022-09-17T00:34:03.185Z,14.40
2022-09-17T00:36:31.839Z,14.40
2022-09-17T00:39:01.633Z,14.40
2022-09-17T00:41:33.838Z,14.40
2022-09-17T00:44:23.211Z,14.40
2022-09-17T00:46:53.485Z,14.40
2022-09-17T00:49:25.542Z,14.40
2022-09-17T00:52:00.490Z,14.40
2022-09-17T00:54:29.252Z,14.40
2022-09-17T00:56:59.256Z,14.40
2022-09-17T00:59:27.839Z,14.40
2022-09-17T01:01:56.237Z,14.40
2022-09-17T01:04:27.572Z,14.40
2022-09-17T01:07:05.808Z,14.30
2022-09-17T01:09:43.830Z,14.30
2022-09-17T01:12:54.146Z,14.30
2022-09-17T01:15:30.396Z,14.40
2022-09-17T01:18:19.313Z,14.30
2022-09-17T01:21:13.426Z,14.30
2022-09-17T01:24:14.165Z,14.30
2022-09-17T01:27:25.316Z,14.30
2022-09-17T01:30:22.694Z,14.30
2022-09-17T01:32:59.615Z,14.30
2022-09-17T01:35:35.113Z,14.20
2022-09-17T01:38:10.798Z,14.10
2022-09-17T01:40:46.664Z,14.10
2022-09-17T01:43:23.139Z,14.10
2022-09-17T01:45:53.152Z,14.10
2022-09-17T01:48:26.251Z,14.10
2022-09-17T01:51:02.195Z,14.10
2022-09-17T01:53:36.615Z,14.10
2022-09-17T01:56:05.612Z,14.00
2022-09-17T01:58:36.567Z,14.10
2022-09-17T02:01:08.716Z,14.10
2022-09-17T02:03:43.258Z,14.10
2022-09-17T02:06:14.638Z,14.10
2022-09-17T02:08:47.869Z,14.10
2022-09-17T02:11:17.243Z,14.10
2022-09-17T02:13:51.221Z,14.10
2022-09-17T02:16:27.083Z,14.10
2022-09-17T02:19:03.529Z,14.10
2022-09-17T02:21:38.279Z,14.10
2022-09-17T02:24:13.269Z,14.10
2022-09-17T02:26:46.952Z,14.10
2022-09-17T02:29:22.880Z,14.00
2022-09-17T02:31:51.188Z,14.00
2022-09-17T02:34:22.342Z,14.00
2022-09-17T02:36:50.412Z,14.00
2022-09-17T02:39:18.665Z,14.00
2022-09-17T02:41:57.776Z,13.90
2022-09-17T02:44:33.946Z,13.90
2022-09-17T02:47:21.052Z,13.90
2022-09-17T02:50:05.900Z,14.00
2022-09-17T02:52:47.304Z,13.90
2022-09-17T02:55:20.984Z,13.90
2022-09-17T02:57:56.786Z,13.90
2022-09-17T03:00:26.202Z,13.90
2022-09-17T03:03:00.598Z,13.90
2022-09-17T03:05:30.752Z,13.90
2022-09-17T03:08:01.286Z,13.90
2022-09-17T03:10:33.370Z,13.90
2022-09-17T03:13:01.425Z,13.90
2022-09-17T03:15:29.491Z,13.90
2022-09-17T03:17:57.567Z,13.90
2022-09-17T03:20:25.639Z,13.90
2022-09-17T03:22:55.102Z,13.80
2022-09-17T03:25:23.186Z,13.90
2022-09-17T03:27:52.412Z,13.80
2022-09-17T03:30:20.898Z,13.80
2022-09-17T03:32:48.975Z,13.80
2022-09-17T03:35:17.282Z,13.80
2022-09-17T03:37:47.415Z,13.80
2022-09-17T03:40:17.172Z,13.80
2022-09-17T03:42:45.314Z,13.80
2022-09-17T03:45:13.664Z,13.70
2022-09-17T03:47:41.682Z,13.70
2022-09-17T03:50:10.214Z,13.70
2022-09-17T03:52:38.328Z,13.70
2022-09-17T03:55:07.402Z,13.70
2022-09-17T03:57:36.842Z,13.60
2022-09-17T04:00:07.590Z,13.60
2022-09-17T04:02:35.844Z,13.60
2022-09-17T04:05:04.052Z,13.60
2022-09-17T04:07:42.272Z,13.50
2022-09-17T04:10:10.502Z,13.50
2022-09-17T04:12:40.352Z,13.50
2022-09-17T04:15:09.389Z,13.40
2022-09-17T04:17:37.515Z,13.40
2022-09-17T04:20:07.197Z,13.40
2022-09-17T04:22:35.278Z,13.40
2022-09-17T04:25:03.426Z,13.40
2022-09-17T04:27:31.500Z,13.30
2022-09-17T04:30:01.589Z,13.30
2022-09-17T04:32:29.681Z,13.30
2022-09-17T04:34:57.804Z,13.20
2022-09-17T04:37:26.343Z,13.20
2022-09-17T04:39:54.470Z,13.20
2022-09-17T04:42:22.521Z,13.20
2022-09-17T04:44:50.631Z,13.20
2022-09-17T04:47:20.172Z,13.20
2022-09-17T04:49:48.232Z,13.20
2022-09-17T04:52:16.387Z,13.20
2022-09-17T04:54:44.495Z,13.20
2022-09-17T04:57:12.662Z,13.20
2022-09-17T04:59:40.696Z,13.10
2022-09-17T05:02:08.900Z,13.10
2022-09-17T05:04:38.335Z,13.10
2022-09-17T05:07:09.101Z,13.10
2022-09-17T05:09:38.934Z,13.10
2022-09-17T05:12:07.253Z,13.10
2022-09-17T05:14:35.342Z,13.10
2022-09-17T05:17:03.572Z,13.00
2022-09-17T05:19:31.651Z,13.00
2022-09-17T05:22:01.131Z,13.00
2022-09-17T05:24:29.195Z,13.00
2022-09-17T05:26:57.268Z,13.00
2022-09-17T05:29:25.463Z,13.00
2022-09-17T05:31:53.882Z,13.00
2022-09-17T05:34:22.111Z,13.00
2022-09-17T05:36:50.228Z,13.00
2022-09-17T05:39:21.374Z,13.00
2022-09-17T05:41:49.504Z,13.00
2022-09-17T05:44:18.289Z,13.10
2022-09-17T05:46:46.690Z,13.10
2022-09-17T05:49:15.270Z,13.10
2022-09-17T05:51:43.657Z,13.10
2022-09-17T05:54:11.736Z,13.10
2022-09-17T05:56:41.199Z,13.20
2022-09-17T05:59:09.310Z,13.20
2022-09-17T06:01:37.515Z,13.20
2022-09-17T06:04:05.648Z,13.30
2022-09-17T06:06:33.830Z,13.30
2022-09-17T06:09:01.963Z,13.30
2022-09-17T06:11:30.052Z,13.30
2022-09-17T06:13:59.803Z,13.40
2022-09-17T06:16:28.123Z,13.30
2022-09-17T06:18:56.704Z,13.40
2022-09-17T06:21:24.950Z,13.40
2022-09-17T06:23:53.003Z,13.40
2022-09-17T06:26:21.127Z,13.40
2022-09-17T06:28:49.337Z,13.40
2022-09-17T06:31:18.872Z,13.40
2022-09-17T06:33:48.213Z,13.40
2022-09-17T06:36:16.282Z,13.50
2022-09-17T06:38:44.588Z,13.50
2022-09-17T06:41:14.606Z,13.50
2022-09-17T06:43:42.695Z,13.60
2022-09-17T06:46:11.760Z,13.60
2022-09-17T06:48:41.232Z,13.60
2022-09-17T06:51:12.245Z,13.60
2022-09-17T06:53:40.491Z,13.70
2022-09-17T06:56:10.572Z,13.70
2022-09-17T06:58:39.832Z,13.70
2022-09-17T07:01:08.119Z,13.80
2022-09-17T07:03:36.366Z,13.90
2022-09-17T07:06:06.394Z,13.90
2022-09-17T07:08:35.535Z,14.00
2022-09-17T07:11:03.814Z,14.00
2022-09-17T07:13:31.984Z,14.10
2022-09-17T07:16:01.934Z,14.20
2022-09-17T07:18:30.642Z,14.30
2022-09-17T07:21:00.038Z,14.30
2022-09-17T07:23:31.180Z,14.40
2022-09-17T07:26:01.319Z,14.50
2022-09-17T07:28:30.304Z,14.60
2022-09-17T07:30:58.761Z,14.70
2022-09-17T07:33:28.386Z,14.70
2022-09-17T07:35:57.633Z,14.80
2022-09-17T07:38:26.585Z,14.90
2022-09-17T07:40:58.070Z,15.00
2022-09-17T07:43:27.177Z,15.00
2022-09-17T07:45:56.074Z,15.10
2022-09-17T07:48:24.250Z,15.10
2022-09-17T07:50:52.622Z,15.10
2022-09-17T07:53:21.624Z,15.20
2022-09-17T07:55:53.706Z,15.20
2022-09-17T07:58:24.548Z,15.20
2022-09-17T08:00:52.782Z,15.20
2022-09-17T08:03:20.969Z,15.20
2022-09-17T08:05:49.199Z,15.20
2022-09-17T08:08:21.145Z,15.20
2022-09-17T08:10:49.605Z,15.20
2022-09-17T08:13:17.727Z,15.20
2022-09-17T08:15:47.222Z,15.20
2022-09-17T08:18:17.606Z,15.20
2022-09-17T08:20:45.682Z,15.30
2022-09-17T08:23:13.903Z,15.30
2022-09-17T08:25:42.147Z,15.30
2022-09-17T08:28:10.239Z,15.30
2022-09-17T08:30:38.330Z,15.40
2022-09-17T08:33:07.837Z,15.50
2022-09-17T08:35:36.095Z,15.50
2022-09-17T08:38:04.330Z,15.60
2022-09-17T08:40:33.642Z,15.70
2022-09-17T08:43:03.763Z,15.70
2022-09-17T08:45:32.001Z,15.80
2022-09-17T08:48:05.637Z,15.80
2022-09-17T08:50:39.183Z,15.90
2022-09-17T08:53:31.975Z,15.90
2022-09-17T08:56:05.617Z,15.90
2022-09-17T08:58:45.010Z,16.00
2022-09-17T09:01:25.149Z,16.00
2022-09-17T09:04:26.292Z,16.10
2022-09-17T09:07:01.815Z,16.10
2022-09-17T09:09:36.427Z,16.20
2022-09-17T09:12:07.799Z,16.20
2022-09-17T09:14:50.046Z,16.30
2022-09-17T09:17:22.762Z,16.40
2022-09-17T09:19:52.998Z,16.50
2022-09-17T09:22:41.797Z,16.60
2022-09-17T09:25:23.144Z,16.60
2022-09-17T09:28:16.679Z,16.60
2022-09-17T09:31:03.409Z,16.60
2022-09-17T09:33:34.444Z,16.50
2022-09-17T09:36:03.014Z,16.50
2022-09-17T09:38:35.079Z,16.50
2022-09-17T09:41:09.720Z,16.50
2022-09-17T09:44:02.732Z,16.40
2022-09-17T09:46:42.106Z,16.30
2022-09-17T09:49:20.183Z,16.20
2022-09-17T09:52:02.698Z,16.20
2022-09-17T09:54:45.103Z,16.10
2022-09-17T09:57:16.685Z,16.00
2022-09-17T09:59:45.025Z,16.00
2022-09-17T10:02:13.445Z,15.90
2022-09-17T10:04:41.686Z,15.80
2022-09-17T10:07:11.735Z,15.80
2022-09-17T10:09:47.282Z,15.70
2022-09-17T10:12:19.426Z,15.70
2022-09-17T10:14:48.672Z,15.70
2022-09-17T10:17:20.901Z,15.70
2022-09-17T10:20:13.680Z,15.70
2022-09-17T10:22:44.299Z,15.70
2022-09-17T10:25:30.654Z,15.70
2022-09-17T10:28:00.947Z,15.80
2022-09-17T10:30:29.330Z,15.90
2022-09-17T10:33:29.315Z,16.00
2022-09-17T10:36:00.006Z,16.10
2022-09-17T10:38:33.810Z,16.20
2022-09-17T10:41:21.766Z,16.30
2022-09-17T10:43:50.689Z,16.40
2022-09-17T10:46:26.773Z,16.50
2022-09-17T10:49:09.318Z,16.60
2022-09-17T10:51:38.430Z,16.60
2022-09-17T10:54:21.493Z,16.70
2022-09-17T10:56:55.562Z,16.80
2022-09-17T10:59:50.741Z,16.90
2022-09-17T11:02:49.749Z,17.00
2022-09-17T11:05:41.303Z,17.10
2022-09-17T11:08:18.358Z,17.10
2022-09-17T11:10:54.842Z,17.20
2022-09-17T11:13:34.020Z,17.20
2022-09-17T11:16:16.220Z,17.20
2022-09-17T11:18:46.708Z,17.20
2022-09-17T11:21:41.478Z,17.20
2022-09-17T11:24:31.378Z,17.30
2022-09-17T11:27:09.765Z,17.40
2022-09-17T11:29:59.706Z,17.40
2022-09-17T11:32:44.064Z,17.40
2022-09-17T11:35:17.923Z,17.40
2022-09-17T11:37:54.614Z,17.40
2022-09-17T11:40:39.273Z,17.40
2022-09-17T11:43:26.249Z,17.30
2022-09-17T11:46:12.139Z,17.30
2022-09-17T11:48:47.316Z,17.30
2022-09-17T11:51:25.876Z,17.40
2022-09-17T11:54:00.115Z,17.30
2022-09-17T11:56:34.621Z,17.40
2022-09-17T11:59:10.511Z,17.30
2022-09-17T12:01:46.810Z,17.40
2022-09-17T12:04:37.758Z,17.40
2022-09-17T12:07:18.944Z,17.40
2022-09-17T12:09:50.741Z,17.40
2022-09-17T12:12:44.734Z,17.40
2022-09-17T12:15:16.711Z,17.40
2022-09-17T12:18:08.720Z,17.30
2022-09-17T12:20:46.070Z,17.30
2022-09-17T12:23:19.200Z,17.20
2022-09-17T12:25:56.912Z,17.20
2022-09-17T12:28:31.421Z,17.10
2022-09-17T12:31:07.111Z,17.10
2022-09-17T12:33:42.005Z,17.10
2022-09-17T12:36:28.769Z,17.00
2022-09-17T12:39:13.527Z,17.00
2022-09-17T12:41:57.468Z,17.00
2022-09-17T12:44:48.506Z,17.10
2022-09-17T12:47:43.323Z,17.20
2022-09-17T12:50:22.142Z,17.30
2022-09-17T12:53:04.107Z,17.30
2022-09-17T12:55:45.091Z,17.40
2022-09-17T12:58:26.436Z,17.50
2022-09-17T13:01:02.192Z,17.60
2022-09-17T13:03:35.768Z,17.60
2022-09-17T13:06:44.095Z,17.70
2022-09-17T13:09:38.857Z,17.70
2022-09-17T13:12:25.292Z,17.80
2022-09-17T13:15:26.613Z,17.90
2022-09-17T13:18:20.653Z,17.90
2022-09-17T13:21:02.500Z,17.90
2022-09-17T13:23:35.780Z,17.90
2022-09-17T13:26:06.769Z,17.90
2022-09-17T13:28:44.601Z,17.90
2022-09-17T13:31:20.215Z,17.90
2022-09-17T13:34:26.763Z,17.90
2022-09-17T13:36:55.845Z,17.90
2022-09-17T13:39:44.893Z,17.80
2022-09-17T13:42:19.040Z,17.70
2022-09-17T13:44:51.487Z,17.60
2022-09-17T13:47:23.499Z,17.40
2022-09-17T13:49:56.552Z,17.30
2022-09-17T13:52:41.080Z,17.10
2022-09-17T13:55:30.705Z,17.00
2022-09-17T13:58:01.305Z,16.90
2022-09-17T14:01:03.385Z,16.70
2022-09-17T14:03:56.818Z,16.60
2022-09-17T14:06:59.668Z,16.50
2022-09-17T14:09:39.377Z,16.40
2022-09-17T14:12:40.547Z,16.30
2022-09-17T14:15:54.982Z,16.30
2022-09-17T14:18:43.346Z,16.30
2022-09-17T14:21:26.987Z,16.20
2022-09-17T14:23:59.238Z,16.20
2022-09-17T14:26:50.239Z,16.20
2022-09-17T14:29:33.985Z,16.10
2022-09-17T14:32:03.975Z,16.10
2022-09-17T14:34:33.488Z,16.00
2022-09-17T14:37:01.785Z,16.00
2022-09-17T14:39:37.888Z,15.90
2022-09-17T14:42:08.358Z,15.90
2022-09-17T14:44:37.070Z,15.80
2022-09-17T14:47:13.459Z,15.80
2022-09-17T14:49:41.671Z,15.70
2022-09-17T14:52:25.812Z,15.60
2022-09-17T14:55:19.531Z,15.50
2022-09-17T14:57:51.209Z,15.50
2022-09-17T15:00:22.991Z,15.50
2022-09-17T15:02:55.728Z,15.50
2022-09-17T15:05:30.209Z,15.40
2022-09-17T15:08:13.592Z,15.40
2022-09-17T15:10:49.214Z,15.40
2022-09-17T15:13:20.573Z,15.40
2022-09-17T15:16:01.712Z,15.40
2022-09-17T15:18:38.305Z,15.40
2022-09-17T15:21:23.577Z,15.40
2022-09-17T15:23:53.799Z,15.40
2022-09-17T15:26:26.899Z,15.50
2022-09-17T15:28:57.729Z,15.50
2022-09-17T15:31:26.007Z,15.50
2022-09-17T15:33:55.550Z,15.50
2022-09-17T15:36:25.151Z,15.50
2022-09-17T15:38:53.449Z,15.50
2022-09-17T15:41:32.781Z,15.50
2022-09-17T15:44:32.055Z,15.60
2022-09-17T15:47:17.820Z,15.60
2022-09-17T15:50:13.452Z,15.60
2022-09-17T15:52:41.934Z,15.70
2022-09-17T15:55:29.475Z,15.70
2022-09-17T15:57:58.739Z,15.70
2022-09-17T16:00:27.179Z,15.70
2022-09-17T16:02:55.749Z,15.80
2022-09-17T16:05:47.710Z,15.80
2022-09-17T16:08:24.215Z,15.70
2022-09-17T16:10:53.108Z,15.70
2022-09-17T16:13:25.131Z,15.60
2022-09-17T16:15:56.296Z,15.60
2022-09-17T16:18:24.629Z,15.50
2022-09-17T16:20:54.128Z,15.50
2022-09-17T16:23:22.277Z,15.40
2022-09-17T16:25:50.990Z,15.40
2022-09-17T16:28:21.198Z,15.40
2022-09-17T16:30:50.642Z,15.30
2022-09-17T16:33:20.125Z,15.30
2022-09-17T16:35:48.190Z,15.30
2022-09-17T16:38:17.683Z,15.30
2022-09-17T16:40:47.761Z,15.20
2022-09-17T16:43:16.648Z,15.20
2022-09-17T16:45:45.052Z,15.10
2022-09-17T16:48:13.170Z,15.20
2022-09-17T16:50:43.045Z,15.20
2022-09-17T16:53:11.183Z,15.20
2022-09-17T16:55:40.718Z,15.20
2022-09-17T16:58:08.913Z,15.10
2022-09-17T17:00:37.276Z,15.10
2022-09-17T17:03:06.813Z,15.10
2022-09-17T17:05:38.674Z,15.00
2022-09-17T17:08:07.535Z,15.00
2022-09-17T17:10:36.116Z,14.90
2022-09-17T17:13:05.888Z,14.80
2022-09-17T17:15:34.029Z,14.80
2022-09-17T17:18:02.185Z,14.70
2022-09-17T17:20:32.008Z,14.60
2022-09-17T17:23:00.131Z,14.60
2022-09-17T17:25:28.608Z,14.50
2022-09-17T17:27:56.870Z,14.50
2022-09-17T17:30:26.438Z,14.40
2022-09-17T17:32:54.602Z,14.40
2022-09-17T17:35:23.640Z,14.30
2022-09-17T17:37:51.719Z,14.30
2022-09-17T17:40:19.933Z,14.20
2022-09-17T17:42:53.124Z,14.20
2022-09-17T17:45:21.368Z,14.10
2022-09-17T17:47:50.892Z,14.10
2022-09-17T17:50:19.017Z,14.10
2022-09-17T17:52:48.681Z,14.10
2022-09-17T17:55:17.947Z,14.00
2022-09-17T17:57:46.099Z,14.00
2022-09-17T18:00:16.658Z,13.90
2022-09-17T18:02:45.816Z,13.90
2022-09-17T18:05:15.668Z,13.90
2022-09-17T18:07:43.834Z,13.80
2022-09-17T18:10:13.132Z,13.90
2022-09-17T18:12:41.459Z,13.90
2022-09-17T18:15:10.022Z,13.90
2022-09-17T18:17:38.132Z,13.80
2022-09-17T18:20:07.003Z,13.80
2022-09-17T18:22:36.498Z,13.80
2022-09-17T18:25:06.935Z,13.80
2022-09-17T18:27:35.168Z,13.90
2022-09-17T18:30:03.437Z,13.90
2022-09-17T18:32:31.541Z,13.90
2022-09-17T18:34:59.646Z,13.90
2022-09-17T18:37:29.774Z,13.90
2022-09-17T18:39:59.796Z,13.90
2022-09-17T18:42:28.228Z,13.90
2022-09-17T18:44:56.343Z,13.90
2022-09-17T18:47:24.608Z,13.90
2022-09-17T18:49:54.196Z,13.90
2022-09-17T18:52:22.503Z,13.90
2022-09-17T18:54:50.660Z,13.90
2022-09-17T18:57:20.223Z,13.90
2022-09-17T18:59:48.405Z,13.80
2022-09-17T19:02:16.639Z,13.80
2022-09-17T19:04:44.722Z,13.80
2022-09-17T19:07:12.789Z,13.80
2022-09-17T19:09:40.864Z,13.80
2022-09-17T19:12:09.087Z,13.70
2022-09-17T19:14:38.619Z,13.70
2022-09-17T19:17:06.852Z,13.70
2022-09-17T19:19:35.031Z,13.60
2022-09-17T19:22:03.261Z,13.60
2022-09-17T19:24:33.683Z,13.60
2022-09-17T19:27:04.186Z,13.60
2022-09-17T19:29:32.287Z,13.60
2022-09-17T19:32:04.331Z,13.50
2022-09-17T19:34:32.241Z,13.50
2022-09-17T19:37:00.331Z,13.50
2022-09-17T19:39:28.629Z,13.50
2022-09-17T19:41:59.327Z,13.50
2022-09-17T19:44:27.693Z,13.50
2022-09-17T19:46:55.931Z,13.50
2022-09-17T19:49:25.547Z,13.40
2022-09-17T19:51:53.641Z,13.40
2022-09-17T19:54:21.874Z,13.40
2022-09-17T19:56:50.167Z,13.40
2022-09-17T19:59:18.511Z,13.30
2022-09-17T20:01:49.653Z,13.30
2022-09-17T20:04:19.305Z,13.30
2022-09-17T20:06:49.385Z,13.30
2022-09-17T20:09:17.467Z,13.30
2022-09-17T20:11:45.573Z,13.20
2022-09-17T20:14:15.879Z,13.20
2022-09-17T20:16:45.098Z,13.20
2022-09-17T20:19:16.390Z,13.20
2022-09-17T20:21:44.583Z,13.10
2022-09-17T20:24:14.930Z,13.10
2022-09-17T20:26:43.804Z,13.10
2022-09-17T20:29:12.526Z,13.00
2022-09-17T20:31:41.000Z,13.10
2022-09-17T20:34:11.410Z,13.00
2022-09-17T20:36:39.902Z,13.00
2022-09-17T20:39:16.767Z,13.00
2022-09-17T20:41:51.146Z,13.00
2022-09-17T20:44:20.301Z,12.90
2022-09-17T20:46:48.553Z,12.90
2022-09-17T20:49:16.783Z,13.00
2022-09-17T20:51:45.180Z,12.90
2022-09-17T20:54:13.649Z,13.00
2022-09-17T20:56:44.406Z,13.00
2022-09-17T20:59:18.660Z,13.00
2022-09-17T21:01:50.075Z,13.00
2022-09-17T21:04:20.531Z,13.00
2022-09-17T21:06:53.850Z,13.00
2022-09-17T21:09:22.588Z,13.00
2022-09-17T21:11:50.842Z,13.10
2022-09-17T21:14:21.066Z,13.10
2022-09-17T21:16:50.053Z,13.10
2022-09-17T21:19:20.120Z,13.10
2022-09-17T21:21:51.686Z,13.20
2022-09-17T21:24:20.189Z,13.20
2022-09-17T21:26:48.327Z,13.20
2022-09-17T21:29:17.213Z,13.30
2022-09-17T21:31:46.868Z,13.30
2022-09-17T21:34:15.126Z,13.30
2022-09-17T21:36:46.428Z,13.40
2022-09-17T21:39:16.594Z,13.40
2022-09-17T21:41:46.198Z,13.50
2022-09-17T21:44:15.103Z,13.50
2022-09-17T21:46:44.157Z,13.50
2022-09-17T21:49:13.902Z,13.60
2022-09-17T21:51:43.519Z,13.60
2022-09-17T21:54:13.350Z,13.60
2022-09-17T21:56:41.907Z,13.60
2022-09-17T21:59:11.413Z,13.70
2022-09-17T22:01:41.261Z,13.60
2022-09-17T22:04:10.689Z,13.70
2022-09-17T22:06:42.340Z,13.70
2022-09-17T22:09:16.083Z,13.70
2022-09-17T22:11:44.492Z,13.70
2022-09-17T22:14:14.636Z,13.70
2022-09-17T22:16:44.372Z,13.80
2022-09-17T22:19:15.135Z,13.80
2022-09-17T22:21:47.351Z,13.80
2022-09-17T22:24:16.238Z,13.80
2022-09-17T22:26:45.902Z,13.80
2022-09-17T22:29:15.871Z,13.80
2022-09-17T22:31:44.519Z,13.90
2022-09-17T22:34:15.107Z,13.90
2022-09-17T22:36:44.725Z,13.90
2022-09-17T22:39:13.090Z,13.90
2022-09-17T22:41:45.166Z,13.90
2022-09-17T22:44:15.075Z,13.90
2022-09-17T22:46:43.570Z,13.90
2022-09-17T22:49:12.967Z,13.90
2022-09-17T22:51:42.305Z,13.90
2022-09-17T22:54:14.181Z,13.90
2022-09-17T22:56:42.671Z,13.90
2022-09-17T22:59:10.860Z,13.90
2022-09-17T23:01:41.136Z,13.90
2022-09-17T23:04:09.458Z,13.90
2022-09-17T23:06:39.577Z,13.90
2022-09-17T23:09:08.144Z,13.90
2022-09-17T23:11:39.758Z,13.90
2022-09-17T23:14:10.041Z,13.90
2022-09-17T23:16:40.296Z,13.90
2022-09-17T23:19:09.210Z,13.90
2022-09-17T23:21:38.091Z,13.90
2022-09-17T23:24:06.539Z,13.90
2022-09-17T23:26:34.974Z,13.90
2022-09-17T23:29:05.798Z,13.90
2022-09-17T23:31:35.787Z,13.90
2022-09-17T23:34:05.612Z,13.90
2022-09-17T23:36:35.630Z,13.90
2022-09-17T23:39:05.006Z,13.80
2022-09-17T23:41:35.174Z,13.80
2022-09-17T23:44:10.751Z,13.80
2022-09-17T23:46:42.189Z,13.80
2022-09-17T23:49:12.922Z,13.80
2022-09-17T23:51:41.014Z,13.80
2022-09-17T23:54:09.390Z,13.80
2022-09-17T23:56:37.934Z,13.80
2022-09-17T23:59:08.556Z,13.80
